Observations for Trim Market St
| Time | AQI | Temp °C | Hum % | Pres Pa | CO μg/m³ | H₂S μg/m³ | NO μg/m³ | NO₂ μg/m³ | O₃ μg/m³ | SO₂ μg/m³ | PM1 μg/m³ | PM2.5 μg/m³ | PM10 μg/m³ |
|---|---|---|---|---|---|---|---|---|---|---|---|---|---|
| Wednesday 8 July 2026 | |||||||||||||
| 03:14 | 1 | 17.2 | 76 | 35,391 | 0.01 | 0 | 0 | 2.92 | 10.27 | 0 | 0 | 1.36 | 3.38 |
| 03:13 | 1 | 17.2 | 76 | 35,615 | 0 | 0 | 0 | 3.12 | 8.51 | 0 | 0 | 1.36 | 3.38 |
| 03:12 | 1 | 17.2 | 76 | 35,821 | 0 | 0 | 0 | 3.02 | 9.28 | 0 | 0.71 | 1.83 | 3.97 |
| 03:11 | 1 | 17.2 | 76 | 35,941 | 0.01 | 0 | 0 | 2.32 | 9.79 | 0 | 0 | 1.36 | 3.38 |
| 03:10 | 1 | 17.2 | 76 | 36,068 | 0.01 | 0 | 0.42 | 3.04 | 8.98 | 0 | 0 | 0.88 | 2.78 |
| 03:09 | 1 | 17.3 | 76 | 36,192 | 0 | 0 | 0 | 1.21 | 14.51 | 0 | 0 | 1.36 | 3.97 |
| 03:07 | 1 | 17.3 | 75 | 36,369 | 0.02 | 0 | 0 | 3.02 | 9.88 | 0 | 0 | 1.36 | 3.37 |
| 03:00 | 1 | 17.4 | 75 | 37,770 | 0 | 0 | 0 | 2.2 | 10.45 | 0 | 0 | 1.85 | 3.96 |
| 02:56 | 1 | 17.5 | 75 | 38,346 | 0 | 0 | 0 | 2.49 | 9.98 | 0 | 0 | 1.37 | 3.36 |
| 02:55 | 1 | 17.5 | 75 | 38,468 | 0 | 0 | 0 | 2.59 | 8.67 | 0 | 0 | 1.37 | 3.36 |
| 02:52 | 1 | 17.5 | 75 | 38,680 | 0 | 0 | 0 | 2.7 | 7.8 | 0 | 0 | 0.9 | 2.76 |
| 02:51 | 1 | 17.6 | 75 | 38,964 | 0 | 0 | 0.16 | 2.09 | 9.18 | 0 | 0 | 1.38 | 3.35 |
| 02:50 | 1 | 17.6 | 75 | 39,067 | 0 | 0 | 0 | 3.59 | 12.32 | 0 | 0 | 1.38 | 3.35 |
| 02:49 | 1 | 17.6 | 75 | 39,196 | 0 | 0 | 0 | 2.99 | 9.91 | 0 | 0 | 1.86 | 5.14 |
| 02:48 | 1 | 17.6 | 75 | 39,320 | 0 | 0 | 0 | 2.79 | 10.6 | 0 | 0 | 0.9 | 2.75 |
| 02:47 | 1 | 17.6 | 75 | 39,362 | 0 | 0 | 0 | 2.49 | 9.29 | 0 | 0 | 1.38 | 3.35 |
| 02:44 | 1 | 17.7 | 75 | 39,647 | 0 | 0 | 0 | 2.16 | 8.86 | 0 | 0 | 0.9 | 2.75 |
| 02:42 | 1 | 17.7 | 75 | 39,619 | 0 | 0 | 0 | 2.66 | 9.91 | 0 | 0 | 1.38 | 3.35 |
| 02:40 | 1 | 17.7 | 75 | 39,418 | 0 | 0 | 0 | 3.16 | 7.85 | 0 | 0 | 1.38 | 3.35 |
| 02:39 | 1 | 17.8 | 75 | 39,379 | 0 | 0 | 0.06 | 1.73 | 15.21 | 0 | 0 | 1.38 | 3.35 |